Metar (rayon 200 km actualisée toutes les 30 minutes)






LFBU - Brie/Champniers, France
Distance de la station: SSE 07km
Mise à jour: 25/01/2015 21:00
Quelques Nuages
Quelques Nuages
 Wind from NNO
Vent: NNO 4 km/h
Température: 3°C
Point de Rosée: -1°C
Humidité: 75%
Baromètre: 1033 hPa
Nuages: Quelques Nuages
Visibilité: 10 km
Nuages details: Quelques Nuages 1158 m
2015/01/25 20:00 LFBU 252000Z AUTO 33002KT 9999 FEW038 03/M01 Q1033
LFBG - Cognac/Chateaubernard, France
Distance de la station: OSO 35km
Mise à jour: 25/01/2015 21:00
nuageux
nuageux
 Wind from O
Vent: O 4 km/h
Baromètre: 1034 hPa
Nuages: nuageux
Visibilité: 10 km
Nuages details: nuageux 1372 m
2015/01/25 20:00 LFBG 252000Z AUTO 26002KT 9999 BKN045 ///// Q1034
 
LFBL - Limoges/Bellegarde, France
Distance de la station: E 82km
Mise à jour: 25/01/2015 21:00
partiellement nuageux
partiellement nuageux
 Wind from ONO
Vent: ONO 9 km/h
Température: 0°C
Wind Chill: -3°C
Point de Rosée: -1°C
Humidité: 93%
Baromètre: 1031 hPa
Nuages: partiellement nuageux
Visibilité: 9 km
2015/01/25 20:00 LFBL 252000Z AUTO 29005KT 9000 NSC M00/M01 Q1031
LFBI - Poitiers/France
Distance de la station: N 93km
Mise à jour: 25/01/2015 21:00
partiellement nuageux
partiellement nuageux
 Wind from O
Vent: O 6 km/h
Température: 0°C
Point de Rosée: -2°C
Humidité: 87%
Baromètre: 1033 hPa
Nuages: partiellement nuageux
Visibilité: 10 km
2015/01/25 20:00 LFBI 252000Z AUTO 28003KT 9999 NSC M00/M02 Q1033
 
LFBH - La Rochelle/France
Distance de la station: ONO 106km
Mise à jour: 25/01/2015 21:00
partiellement nuageux
partiellement nuageux
 Wind from N
Vent: N 4 km/h
Température: 3°C
Point de Rosée: 0°C
Humidité: 81%
Baromètre: 1034 hPa
Nuages: partiellement nuageux
Visibilité: 10 km
2015/01/25 20:00 LFBH 252000Z AUTO 35002KT 9999 NSC 03/00 Q1034
LFBE - Bergerac/France
Distance de la station: SSE 107km
Mise à jour: 25/01/2015 21:00
partiellement nuageux
partiellement nuageux
 Wind from OSO
Vent: OSO 9 km/h
Température: 1°C
Wind Chill: -2°C
Point de Rosée: -1°C
Humidité: 87%
Baromètre: 1033 hPa
Nuages: partiellement nuageux
Visibilité: 10 km
2015/01/25 20:00 LFBE 252000Z AUTO 24005KT 9999 NSC 01/M01 Q1033
 
LFBD - Bordeaux/France
Distance de la station: SSO 121km
Mise à jour: 25/01/2015 21:00
partiellement nuageux
partiellement nuageux
 Wind from O
Vent: O 4 km/h
Température: 1°C
Point de Rosée: -1°C
Humidité: 87%
Baromètre: 1034 hPa
Nuages: partiellement nuageux
Visibilité: 10 km
2015/01/25 20:00 LFBD 252000Z AUTO 26002KT 9999 NSC 01/M01 Q1034
LFRI - La Roche-sur-Yon/France
Distance de la station: NO 156km
Mise à jour: 25/01/2015 21:00
nuageux
nuageux
 Wind from O
Vent: O 4 km/h
Température: 3°C
Point de Rosée: 1°C
Humidité: 87%
Baromètre: 1034 hPa
Nuages: nuageux
Visibilité: 10 km
Nuages details: nuageux 1250 m
2015/01/25 20:00 LFRI 252000Z AUTO 27002KT 9999 BKN041 03/01 Q1034
 
LFBC - Cazaux/France
Distance de la station: SO 167km
Mise à jour: 25/01/2015 21:00
partiellement nuageux
partiellement nuageux
 Wind from N
Vent: N 6 km/h
Température: 1°C
Point de Rosée: 0°C
Humidité: 93%
Baromètre: 1034 hPa
Nuages: partiellement nuageux
Visibilité: 10 km
2015/01/25 20:00 LFBC 252000Z AUTO 36003KT 9999 NSC 01/M00 Q1034
LFLX - Chateauroux/France
Distance de la station: NE 174km
Mise à jour: 25/01/2015 21:00
partiellement nuageux
partiellement nuageux
 Wind from calm
Vent: Vent calme
Température: 1°C
Point de Rosée: 0°C
Humidité: 93%
Baromètre: 1032 hPa
Nuages: partiellement nuageux
Visibilité: 10 km
2015/01/25 20:00 LFLX 252000Z AUTO 00000KT 9999 NSC 01/00 Q1032
 
LFBA - Agen/France
Distance de la station: SSE 179km
Mise à jour: 25/01/2015 21:00
partiellement nuageux
partiellement nuageux
 Wind from O
Vent: O 9 km/h
Température: 3°C
Wind Chill: 0°C
Point de Rosée: -1°C
Humidité: 75%
Baromètre: 1033 hPa
Nuages: partiellement nuageux
Visibilité: 10 km
2015/01/25 20:00 LFBA 252000Z AUTO 27005KT 9999 NSC 03/M01 Q1033